createdAt,value
2017-04-05T00:00:54.234Z,19.92
2017-04-05T00:01:54.344Z,19.96
2017-04-05T00:02:54.260Z,19.94
2017-04-05T00:03:53.945Z,20.06
2017-04-05T00:04:54.313Z,19.95
2017-04-05T00:05:53.635Z,19.99
2017-04-05T00:06:54.270Z,19.95
2017-04-05T00:07:54.016Z,20.01
2017-04-05T00:08:53.972Z,20.03
2017-04-05T00:09:54.290Z,20.01
2017-04-05T00:10:55.164Z,20.11
2017-04-05T00:11:54.345Z,20.11
2017-04-05T00:12:54.547Z,20.06
2017-04-05T00:13:54.001Z,20.05
2017-04-05T00:14:54.093Z,20.08
2017-04-05T00:15:54.326Z,20.08
2017-04-05T00:16:54.424Z,19.94
2017-04-05T00:17:54.020Z,19.96
2017-04-05T00:18:54.379Z,20.01
2017-04-05T00:19:54.343Z,19.98
2017-04-05T00:20:54.393Z,19.98
2017-04-05T00:21:55.654Z,19.98
2017-04-05T00:22:54.345Z,20.05
2017-04-05T00:23:54.438Z,20.01
2017-04-05T00:24:54.044Z,19.98
2017-04-05T00:25:54.149Z,19.99
2017-04-05T00:26:54.376Z,19.94
2017-04-05T00:27:54.479Z,19.98
2017-04-05T00:28:54.399Z,19.95
2017-04-05T00:29:54.392Z,20.06
2017-04-05T00:30:54.390Z,20.03
2017-04-05T00:31:54.098Z,19.98
2017-04-05T00:32:55.456Z,19.98
2017-04-05T00:33:54.510Z,19.94
2017-04-05T00:34:54.511Z,19.96
2017-04-05T00:35:54.475Z,20.01
2017-04-05T00:36:55.599Z,19.98
2017-04-05T00:37:54.473Z,19.92
2017-04-05T00:38:54.483Z,19.95
2017-04-05T00:39:54.438Z,19.99
2017-04-05T00:40:54.512Z,19.98
2017-04-05T00:41:54.499Z,19.98
2017-04-05T00:42:54.551Z,19.95
2017-04-05T00:43:55.307Z,19.99
2017-04-05T00:44:54.245Z,19.94
2017-04-05T00:45:54.515Z,19.94
2017-04-05T00:46:54.255Z,19.96
2017-04-05T00:47:55.535Z,19.96
2017-04-05T00:48:54.539Z,20.01
2017-04-05T00:49:54.645Z,20.01
2017-04-05T00:50:54.492Z,19.99
2017-04-05T00:51:54.499Z,19.99
2017-04-05T00:52:54.552Z,19.96
2017-04-05T00:53:54.506Z,19.92
2017-04-05T00:54:54.520Z,19.91
2017-04-05T00:55:54.515Z,19.91
2017-04-05T00:56:54.323Z,19.88
2017-04-05T00:57:54.577Z,19.94
2017-04-05T00:58:55.585Z,19.92
2017-04-05T00:59:54.537Z,19.87
2017-04-05T01:00:54.547Z,19.96
2017-04-05T01:01:54.543Z,19.96
2017-04-05T01:02:54.603Z,19.88
2017-04-05T01:03:54.662Z,19.95
2017-04-05T01:04:54.554Z,19.86
2017-04-05T01:05:54.630Z,19.88
2017-04-05T01:06:54.638Z,19.99
2017-04-05T01:07:54.634Z,19.96
2017-04-05T01:08:54.315Z,19.98
2017-04-05T01:09:55.461Z,20.02
2017-04-05T01:10:54.283Z,19.95
2017-04-05T01:11:54.605Z,19.99
2017-04-05T01:12:54.680Z,20.02
2017-04-05T01:13:54.666Z,19.86
2017-04-05T01:14:54.719Z,19.86
2017-04-05T01:15:54.364Z,19.91
2017-04-05T01:16:54.728Z,19.88
2017-04-05T01:17:54.638Z,19.91
2017-04-05T01:18:54.477Z,19.91
2017-04-05T01:19:54.687Z,19.87
2017-04-05T01:20:55.794Z,19.91
2017-04-05T01:21:54.383Z,19.99
2017-04-05T01:22:54.756Z,19.91
2017-04-05T01:23:55.239Z,19.87
2017-04-05T01:24:54.666Z,19.87
2017-04-05T01:25:54.677Z,19.88
2017-04-05T01:26:54.722Z,19.92
2017-04-05T01:27:54.728Z,19.98
2017-04-05T01:28:54.731Z,19.92
2017-04-05T01:29:54.893Z,19.88
2017-04-05T01:30:54.175Z,19.98
2017-04-05T01:31:55.182Z,19.87
2017-04-05T01:33:54.808Z,19.91
2017-04-05T01:34:54.813Z,19.91
2017-04-05T01:35:54.781Z,19.95
2017-04-05T01:36:54.457Z,19.96
2017-04-05T01:37:54.775Z,19.88
2017-04-05T01:42:10.413Z,19.86
2017-04-05T01:42:41.039Z,19.99
2017-04-05T01:43:41.595Z,19.84
2017-04-05T01:44:41.254Z,19.83
2017-04-05T01:45:41.250Z,19.91
2017-04-05T01:46:41.272Z,19.84
2017-04-05T01:47:41.321Z,19.83
2017-04-05T01:48:41.323Z,19.87
2017-04-05T01:49:41.333Z,19.81
2017-04-05T01:50:41.331Z,19.87
2017-04-05T01:51:41.281Z,19.91
2017-04-05T01:52:41.081Z,19.88
2017-04-05T01:53:42.545Z,19.87
2017-04-05T01:54:41.295Z,19.83
2017-04-05T01:55:41.361Z,19.86
2017-04-05T01:56:41.360Z,19.83
2017-04-05T01:57:41.321Z,19.83
2017-04-05T01:58:41.002Z,19.87
2017-04-05T01:59:41.324Z,19.87
2017-04-05T02:00:41.442Z,19.84
2017-04-05T02:01:41.393Z,19.84
2017-04-05T02:02:41.087Z,19.84
2017-04-05T02:03:41.341Z,19.84
2017-04-05T02:04:42.351Z,19.87
2017-04-05T02:05:41.406Z,19.94
2017-04-05T02:06:41.094Z,19.95
2017-04-05T02:07:41.368Z,19.86
2017-04-05T02:08:41.058Z,19.84
2017-04-05T02:10:10.552Z,19.87
2017-04-05T02:10:41.486Z,19.88
2017-04-05T02:11:41.506Z,19.99
2017-04-05T02:12:41.443Z,19.84
2017-04-05T02:13:41.548Z,19.91
2017-04-05T02:14:41.394Z,19.99
2017-04-05T02:15:42.151Z,20.01
2017-04-05T02:16:41.419Z,19.91
2017-04-05T02:17:41.511Z,19.92
2017-04-05T02:18:41.474Z,20.02
2017-04-05T02:19:41.163Z,19.91
2017-04-05T02:20:41.476Z,19.92
2017-04-05T02:21:41.235Z,19.91
2017-04-05T02:22:41.435Z,19.92
2017-04-05T02:23:41.470Z,19.99
2017-04-05T02:24:41.445Z,19.88
2017-04-05T02:25:40.830Z,19.87
2017-04-05T02:26:41.994Z,20.01
2017-04-05T02:27:40.838Z,19.99
2017-04-05T02:28:41.574Z,19.99
2017-04-05T02:29:41.166Z,19.98
2017-04-05T02:30:41.482Z,19.88
2017-04-05T02:31:41.628Z,19.91
2017-04-05T02:32:41.587Z,19.92
2017-04-05T02:33:56.060Z,19.94
2017-04-05T02:34:41.650Z,19.91
2017-04-05T02:35:41.205Z,19.94
2017-04-05T02:36:41.509Z,19.91
2017-04-05T02:37:41.764Z,19.87
2017-04-05T02:38:40.949Z,19.94
2017-04-05T02:39:41.261Z,19.96
2017-04-05T02:40:41.225Z,19.94
2017-04-05T02:41:41.688Z,19.88
2017-04-05T02:42:41.605Z,19.96
2017-04-05T02:43:41.239Z,19.91
2017-04-05T02:44:41.612Z,19.88
2017-04-05T02:45:41.604Z,19.92
2017-04-05T02:46:41.661Z,19.88
2017-04-05T02:47:41.620Z,19.92
2017-04-05T02:48:41.639Z,19.86
2017-04-05T02:49:41.587Z,19.87
2017-04-05T02:50:42.551Z,19.86
2017-04-05T02:51:41.592Z,19.87
2017-04-05T02:52:41.644Z,19.87
2017-04-05T02:53:41.335Z,19.83
2017-04-05T02:54:41.666Z,19.86
2017-04-05T02:55:41.903Z,19.92
2017-04-05T02:56:41.708Z,19.86
2017-04-05T02:57:41.622Z,19.77
2017-04-05T02:58:41.307Z,19.73
2017-04-05T02:59:41.683Z,19.69
2017-04-05T03:00:41.321Z,19.73
2017-04-05T03:01:42.776Z,19.78
2017-04-05T03:02:41.329Z,19.74
2017-04-05T03:03:41.642Z,19.66
2017-04-05T03:04:41.713Z,19.71
2017-04-05T03:05:41.665Z,19.78
2017-04-05T03:06:41.449Z,19.84
2017-04-05T03:07:41.663Z,19.86
2017-04-05T03:08:41.359Z,19.86
2017-04-05T03:09:41.371Z,19.87
2017-04-05T03:10:41.689Z,19.87
2017-04-05T03:11:41.736Z,19.88
2017-04-05T03:12:42.439Z,19.94
2017-04-05T03:13:41.698Z,19.88
2017-04-05T03:14:41.764Z,19.91
2017-04-05T03:15:41.764Z,19.87
2017-04-05T03:16:41.760Z,19.87
2017-04-05T03:17:41.406Z,19.96
2017-04-05T03:18:41.728Z,19.87
2017-04-05T03:19:41.729Z,19.86
2017-04-05T03:20:41.778Z,19.91
2017-04-05T03:21:41.475Z,19.94
2017-04-05T03:22:41.746Z,19.91
2017-04-05T03:23:42.288Z,19.94
2017-04-05T03:24:41.437Z,19.88
2017-04-05T03:25:41.758Z,19.96
2017-04-05T03:26:41.810Z,20.02
2017-04-05T03:27:41.451Z,19.94
2017-04-05T03:28:41.775Z,19.99
2017-04-05T03:29:41.464Z,19.91
2017-04-05T03:30:41.519Z,19.87
2017-04-05T03:31:41.160Z,19.87
2017-04-05T03:32:41.483Z,19.87
2017-04-05T03:33:41.798Z,19.88
2017-04-05T03:34:42.261Z,19.86
2017-04-05T03:35:41.813Z,19.83
2017-04-05T03:36:41.824Z,19.84
2017-04-05T03:37:41.815Z,19.87
2017-04-05T03:38:42.269Z,19.84
2017-04-05T03:39:41.879Z,19.81
2017-04-05T03:40:41.836Z,19.86
2017-04-05T03:41:41.532Z,19.77
2017-04-05T03:42:41.839Z,19.81
2017-04-05T03:43:41.860Z,19.78
2017-04-05T03:44:41.876Z,19.86
2017-04-05T03:45:42.072Z,19.8
2017-04-05T03:46:41.871Z,19.78
2017-04-05T03:47:43.462Z,19.81
2017-04-05T03:48:41.765Z,19.76
2017-04-05T03:49:41.927Z,19.81
2017-04-05T03:50:41.889Z,19.71
2017-04-05T03:51:41.887Z,19.73
2017-04-05T03:52:41.627Z,19.76
2017-04-05T03:53:41.957Z,19.78
2017-04-05T03:54:41.645Z,19.74
2017-04-05T03:55:41.962Z,19.73
2017-04-05T03:56:41.912Z,19.68
2017-04-05T03:57:41.921Z,19.68
2017-04-05T03:58:43.096Z,19.66
2017-04-05T03:59:41.983Z,19.68
2017-04-05T04:00:42.089Z,19.71
2017-04-05T04:01:42.243Z,19.68
2017-04-05T04:02:42.100Z,19.76
2017-04-05T04:03:56.568Z,19.71
2017-04-05T04:04:41.749Z,19.73
2017-04-05T04:05:41.649Z,19.69
2017-04-05T04:06:41.663Z,19.73
2017-04-05T04:07:42.014Z,19.73
2017-04-05T04:08:42.029Z,19.74
2017-04-05T04:09:43.050Z,19.66
2017-04-05T04:10:42.038Z,19.65
2017-04-05T04:11:41.981Z,19.71
2017-04-05T04:12:42.096Z,19.8
2017-04-05T04:13:42.003Z,19.77
2017-04-05T04:14:41.689Z,19.73
2017-04-05T04:15:42.087Z,19.71
2017-04-05T04:16:42.024Z,19.81
2017-04-05T04:17:42.086Z,19.63
2017-04-05T04:18:41.715Z,19.69
2017-04-05T04:19:42.028Z,19.8
2017-04-05T04:20:42.942Z,19.68
2017-04-05T04:21:42.047Z,19.71
2017-04-05T04:22:41.931Z,19.74
2017-04-05T04:23:42.165Z,19.73
2017-04-05T04:24:42.102Z,19.68
2017-04-05T04:25:42.062Z,19.81
2017-04-05T04:26:41.747Z,19.65
2017-04-05T04:27:42.064Z,19.62
2017-04-05T04:28:42.075Z,19.68
2017-04-05T04:29:41.812Z,19.74
2017-04-05T04:30:42.090Z,19.74
2017-04-05T04:31:42.829Z,19.71
2017-04-05T04:32:42.164Z,19.69
2017-04-05T04:33:42.098Z,19.76
2017-04-05T04:34:42.102Z,19.71
2017-04-05T04:35:42.160Z,19.74
2017-04-05T04:36:41.854Z,19.73
2017-04-05T04:37:42.176Z,19.71
2017-04-05T04:38:42.134Z,19.73
2017-04-05T04:39:42.130Z,19.69
2017-04-05T04:40:41.872Z,19.69
2017-04-05T04:41:42.392Z,19.66
2017-04-05T04:42:42.690Z,19.73
2017-04-05T04:43:41.845Z,19.71
2017-04-05T04:44:42.158Z,19.69
2017-04-05T04:45:42.170Z,19.78
2017-04-05T04:46:42.865Z,19.78
2017-04-05T04:47:42.185Z,19.77
2017-04-05T04:48:41.863Z,19.77
2017-04-05T04:49:42.226Z,19.73
2017-04-05T04:50:42.287Z,19.71
2017-04-05T04:51:42.245Z,19.76
2017-04-05T04:52:42.298Z,19.77
2017-04-05T04:53:42.507Z,19.78
2017-04-05T04:54:42.261Z,19.76
2017-04-05T04:55:43.990Z,19.71
2017-04-05T04:56:42.217Z,19.66
2017-04-05T04:57:42.762Z,19.71
2017-04-05T04:58:42.268Z,19.78
2017-04-05T04:59:42.813Z,19.69
2017-04-05T05:00:41.984Z,19.69
2017-04-05T05:01:42.257Z,19.69
2017-04-05T05:02:41.932Z,19.73
2017-04-05T05:03:42.256Z,19.68
2017-04-05T05:04:42.299Z,19.69
2017-04-05T05:05:41.953Z,19.66
2017-04-05T05:06:43.692Z,19.66
2017-04-05T05:07:42.013Z,19.66
2017-04-05T05:08:42.683Z,19.66
2017-04-05T05:09:42.329Z,19.63
2017-04-05T05:10:42.482Z,19.66
2017-04-05T05:11:42.289Z,19.62
2017-04-05T05:12:42.302Z,19.66
2017-04-05T05:13:41.775Z,19.73
2017-04-05T05:14:41.998Z,19.69
2017-04-05T05:15:42.314Z,19.76
2017-04-05T05:16:42.319Z,19.81
2017-04-05T05:17:42.024Z,19.76
2017-04-05T05:18:42.336Z,19.84
2017-04-05T05:19:43.025Z,19.92
2017-04-05T05:20:42.026Z,19.88
2017-04-05T05:21:42.356Z,19.86
2017-04-05T05:22:42.388Z,19.87
2017-04-05T05:23:42.385Z,19.87
2017-04-05T05:24:42.047Z,19.91
2017-04-05T05:25:42.369Z,19.94
2017-04-05T05:26:42.198Z,19.88
2017-04-05T05:27:42.379Z,19.95
2017-04-05T05:28:42.468Z,19.98
2017-04-05T05:29:42.486Z,20.01
2017-04-05T05:30:43.035Z,19.98
2017-04-05T05:31:42.386Z,19.94
2017-04-05T05:32:42.390Z,19.95
2017-04-05T05:33:44.506Z,20.06
2017-04-05T05:34:42.397Z,20.1
2017-04-05T05:35:42.144Z,20.1
2017-04-05T05:36:42.417Z,20.08
2017-04-05T05:37:42.466Z,20.1
2017-04-05T05:38:42.114Z,20.06
2017-04-05T05:39:43.145Z,20.16
2017-04-05T05:40:42.436Z,20.16
2017-04-05T05:41:42.792Z,20.2
2017-04-05T05:42:42.144Z,20.2
2017-04-05T05:43:42.451Z,20.18
2017-04-05T05:44:42.452Z,20.26
2017-04-05T05:45:42.466Z,20.1
2017-04-05T05:46:42.459Z,20.01
2017-04-05T05:47:42.467Z,20.03
2017-04-05T05:48:42.471Z,20.05
2017-04-05T05:49:42.491Z,20.05
2017-04-05T05:50:42.538Z,20.18
2017-04-05T05:51:41.866Z,20.18
2017-04-05T05:52:42.641Z,20.06
2017-04-05T05:53:42.698Z,20.16
2017-04-05T05:54:44.016Z,20.08
2017-04-05T05:55:42.928Z,20.11
2017-04-05T05:56:42.531Z,20.03
2017-04-05T05:57:42.554Z,20.18
2017-04-05T05:58:42.571Z,20.17
2017-04-05T05:59:42.538Z,20.2
2017-04-05T06:00:42.683Z,20.23
2017-04-05T06:01:42.242Z,20.26
2017-04-05T06:02:42.597Z,20.18
2017-04-05T06:03:42.848Z,20.29
2017-04-05T06:04:42.564Z,20.38
2017-04-05T06:05:42.616Z,20.47
2017-04-05T06:06:42.269Z,20.5
2017-04-05T06:07:42.309Z,20.59
2017-04-05T06:08:42.635Z,20.66
2017-04-05T06:09:42.577Z,20.66
2017-04-05T06:10:42.286Z,20.79
2017-04-05T06:11:42.643Z,20.77
2017-04-05T06:12:42.285Z,20.85
2017-04-05T06:13:42.703Z,20.87
2017-04-05T06:14:42.843Z,20.97
2017-04-05T06:15:42.670Z,20.95
2017-04-05T06:16:42.627Z,20.95
2017-04-05T06:17:42.370Z,20.89
2017-04-05T06:18:42.626Z,20.98
2017-04-05T06:19:42.432Z,21.01
2017-04-05T06:20:42.700Z,21.03
2017-04-05T06:21:42.346Z,21.01
2017-04-05T06:22:42.649Z,21.04
2017-04-05T06:23:42.714Z,21.1
2017-04-05T06:24:42.758Z,21.01
2017-04-05T06:25:42.773Z,21.07
2017-04-05T06:26:42.746Z,20.99
2017-04-05T06:27:43.640Z,20.97
2017-04-05T06:28:42.783Z,20.99
2017-04-05T06:29:43.050Z,21.07
2017-04-05T06:30:42.754Z,21.21
2017-04-05T06:31:42.430Z,21.14
2017-04-05T06:32:42.714Z,21.07
2017-04-05T06:33:56.966Z,20.98
2017-04-05T06:34:42.765Z,20.88
2017-04-05T06:35:42.727Z,20.7
2017-04-05T06:36:42.735Z,20.69
2017-04-05T06:37:42.798Z,20.69
2017-04-05T06:38:44.152Z,20.66
2017-04-05T06:39:42.794Z,20.57
2017-04-05T06:40:43.062Z,20.54
2017-04-05T06:41:42.808Z,20.58
2017-04-05T06:42:42.547Z,20.62
2017-04-05T06:43:42.817Z,20.48
2017-04-05T06:44:42.770Z,20.54
2017-04-05T06:45:42.887Z,20.51
2017-04-05T06:46:42.829Z,20.54
2017-04-05T06:47:42.841Z,20.54
2017-04-05T06:48:42.850Z,20.48
2017-04-05T06:49:43.903Z,20.47
2017-04-05T06:50:42.858Z,20.54
2017-04-05T06:51:42.812Z,20.47
2017-04-05T06:52:42.861Z,20.57
2017-04-05T06:53:42.875Z,20.57
2017-04-05T06:54:42.512Z,20.57
2017-04-05T06:55:42.573Z,20.66
2017-04-05T06:56:42.569Z,20.66
2017-04-05T06:57:42.839Z,20.73
2017-04-05T06:58:42.896Z,20.79
2017-04-05T06:59:42.857Z,20.74
2017-04-05T07:00:43.655Z,20.84
2017-04-05T07:01:42.600Z,21.07
2017-04-05T07:02:42.929Z,21.03
2017-04-05T07:03:42.872Z,21.07
2017-04-05T07:04:42.922Z,21.12
2017-04-05T07:05:42.623Z,21.03
2017-04-05T07:06:42.998Z,21.09
2017-04-05T07:07:42.893Z,20.98
2017-04-05T07:08:42.898Z,21.01
2017-04-05T07:09:42.907Z,21.04
2017-04-05T07:10:42.953Z,21.01
2017-04-05T07:11:43.568Z,21.09
2017-04-05T07:12:43.331Z,21.16
2017-04-05T07:13:42.618Z,21.22
2017-04-05T07:14:42.640Z,21.17
2017-04-05T07:15:43.879Z,21.17
2017-04-05T07:16:43.020Z,21.24
2017-04-05T07:17:42.939Z,21.19
2017-04-05T07:18:43.707Z,21.27
2017-04-05T07:19:43.180Z,21.17
2017-04-05T07:20:43.462Z,20.99
2017-04-05T07:21:43.017Z,20.87
2017-04-05T07:22:43.062Z,20.89
2017-04-05T07:23:42.665Z,20.85
2017-04-05T07:24:43.040Z,20.92
2017-04-05T07:25:43.042Z,20.97
2017-04-05T07:26:43.345Z,20.91
2017-04-05T07:27:43.050Z,20.92
2017-04-05T07:28:43.057Z,21.01
2017-04-05T07:29:43.142Z,21.06
2017-04-05T07:30:43.078Z,21.12
2017-04-05T07:31:43.071Z,21.1
2017-04-05T07:32:43.027Z,21.16
2017-04-05T07:33:57.600Z,21.24
2017-04-05T07:34:43.144Z,21.16
2017-04-05T07:35:43.057Z,21.24
2017-04-05T07:36:43.096Z,21.24
2017-04-05T07:37:43.545Z,21.14
2017-04-05T07:38:43.062Z,21.13
2017-04-05T07:39:43.071Z,21.12
2017-04-05T07:40:42.503Z,20.94
2017-04-05T07:41:43.082Z,20.85
2017-04-05T07:42:42.827Z,20.77
2017-04-05T07:43:43.138Z,20.69
2017-04-05T07:44:43.205Z,20.62
2017-04-05T07:45:43.096Z,20.66
2017-04-05T07:46:42.584Z,20.66
2017-04-05T07:47:43.173Z,20.69
2017-04-05T07:48:43.653Z,20.77
2017-04-05T07:49:43.183Z,20.84
2017-04-05T07:50:43.331Z,20.94
2017-04-05T07:51:43.183Z,21.04
2017-04-05T07:52:43.194Z,21.12
2017-04-05T07:53:42.517Z,21.24
2017-04-05T07:54:43.164Z,21.25
2017-04-05T07:55:43.154Z,21.34
2017-04-05T07:56:42.899Z,21.31
2017-04-05T07:57:43.174Z,21.42
2017-04-05T07:58:43.227Z,21.37
2017-04-05T07:59:43.724Z,21.38
2017-04-05T08:00:43.233Z,21.5
2017-04-05T08:01:43.341Z,21.46
2017-04-05T08:02:42.987Z,21.61
2017-04-05T08:03:43.197Z,21.69
2017-04-05T08:04:43.286Z,21.75
2017-04-05T08:05:42.908Z,21.74
2017-04-05T08:06:43.300Z,21.79
2017-04-05T08:07:43.279Z,21.64
2017-04-05T08:08:44.396Z,21.64
2017-04-05T08:09:42.669Z,21.65
2017-04-05T08:10:43.290Z,21.64
2017-04-05T08:11:43.301Z,21.65
2017-04-05T08:12:44.280Z,21.64
2017-04-05T08:13:42.998Z,21.68
2017-04-05T08:14:43.001Z,21.79
2017-04-05T08:15:42.952Z,21.9
2017-04-05T08:16:43.280Z,21.75
2017-04-05T08:17:43.282Z,21.86
2017-04-05T08:18:42.662Z,21.75
2017-04-05T08:19:43.397Z,21.75
2017-04-05T08:20:43.050Z,21.77
2017-04-05T08:21:43.500Z,21.84
2017-04-05T08:22:43.315Z,21.84
2017-04-05T08:23:44.892Z,21.75
2017-04-05T08:24:43.373Z,21.79
2017-04-05T08:25:43.014Z,21.86
2017-04-05T08:26:43.018Z,21.82
2017-04-05T08:27:43.390Z,21.75
2017-04-05T08:28:43.341Z,21.84
2017-04-05T08:29:43.395Z,21.77
2017-04-05T08:30:43.349Z,21.86
2017-04-05T08:31:42.790Z,22.1
2017-04-05T08:32:43.779Z,22.22
2017-04-05T08:33:42.844Z,22.24
2017-04-05T08:34:43.067Z,22.1
2017-04-05T08:35:43.381Z,21.83
2017-04-05T08:36:42.863Z,21.59
2017-04-05T08:37:43.446Z,21.44
2017-04-05T08:38:43.088Z,21.29
2017-04-05T08:39:43.206Z,21.17
2017-04-05T08:40:43.152Z,21.19
2017-04-05T08:41:43.529Z,21.14
2017-04-05T08:42:43.166Z,21.17
2017-04-05T08:43:43.528Z,21.1
2017-04-05T08:44:43.123Z,21.04
2017-04-05T08:45:44.920Z,21.09
2017-04-05T08:46:43.505Z,21.12
2017-04-05T08:47:43.501Z,21.04
2017-04-05T08:48:43.515Z,21.09
2017-04-05T08:49:43.475Z,21.07
2017-04-05T08:50:43.163Z,20.98
2017-04-05T08:51:43.163Z,20.91
2017-04-05T08:52:43.479Z,20.91
2017-04-05T08:53:43.544Z,20.82
2017-04-05T08:54:43.791Z,20.77
2017-04-05T08:55:43.509Z,20.84
2017-04-05T08:56:44.423Z,20.79
2017-04-05T08:57:42.891Z,20.82
2017-04-05T08:58:43.814Z,20.87
2017-04-05T08:59:43.217Z,20.82
2017-04-05T09:00:43.679Z,20.89
2017-04-05T09:01:43.892Z,20.82
2017-04-05T09:02:43.537Z,20.84
2017-04-05T09:03:43.648Z,20.84
2017-04-05T09:04:43.342Z,20.73
2017-04-05T09:05:43.492Z,20.8
2017-04-05T09:06:43.618Z,20.85
2017-04-05T09:07:45.282Z,20.76
2017-04-05T09:08:43.306Z,20.72
2017-04-05T09:09:44.023Z,20.67
2017-04-05T09:10:43.634Z,20.73
2017-04-05T09:11:43.336Z,20.87
2017-04-05T09:12:43.326Z,20.88
2017-04-05T09:13:43.281Z,21.01
2017-04-05T09:14:43.288Z,21.12
2017-04-05T09:15:43.666Z,21.03
2017-04-05T09:16:43.690Z,21.04
2017-04-05T09:17:43.634Z,21.03
2017-04-05T09:18:44.663Z,21.06
2017-04-05T09:19:43.680Z,20.99
2017-04-05T09:20:44.039Z,21.01
2017-04-05T09:21:43.383Z,21.01
2017-04-05T09:22:43.707Z,21.1
2017-04-05T09:23:43.405Z,21.13
2017-04-05T09:24:43.716Z,21.17
2017-04-05T09:25:43.403Z,21.16
2017-04-05T09:26:43.099Z,21.22
2017-04-05T09:27:43.679Z,21.31
2017-04-05T09:28:43.677Z,21.37
2017-04-05T09:29:45.218Z,21.49
2017-04-05T09:30:43.747Z,21.67
2017-04-05T09:31:43.997Z,21.75
2017-04-05T09:32:43.700Z,21.83
2017-04-05T09:33:58.162Z,21.96
2017-04-05T09:34:43.446Z,22.09
2017-04-05T09:35:43.461Z,22.05
2017-04-05T09:36:43.774Z,22.15
2017-04-05T09:37:43.725Z,22.2
2017-04-05T09:38:43.428Z,22.35
2017-04-05T09:39:43.433Z,22.27
2017-04-05T09:40:43.679Z,22.27
2017-04-05T09:41:43.750Z,22.33
2017-04-05T09:42:44.221Z,22.28
2017-04-05T09:43:43.830Z,22.39
2017-04-05T09:44:43.775Z,22.37
2017-04-05T09:45:43.878Z,22.43
2017-04-05T09:46:43.837Z,22.3
2017-04-05T09:47:43.835Z,22.36
2017-04-05T09:48:43.790Z,22.42
2017-04-05T09:49:43.847Z,22.42
2017-04-05T09:50:43.549Z,22.49
2017-04-05T09:51:44.732Z,22.31
2017-04-05T09:52:43.562Z,22.25
2017-04-05T09:53:43.968Z,22.31
2017-04-05T09:54:43.515Z,22.28
2017-04-05T09:55:44.861Z,22.4
2017-04-05T09:56:43.578Z,22.3
2017-04-05T09:57:43.537Z,22.24
2017-04-05T09:58:43.900Z,22.27
2017-04-05T09:59:43.912Z,22.3
2017-04-05T10:00:43.865Z,22.33
2017-04-05T10:01:43.925Z,22.35
2017-04-05T10:02:43.570Z,22.33
2017-04-05T10:03:58.544Z,22.3
2017-04-05T10:04:43.983Z,22.22
2017-04-05T10:05:43.893Z,22.21
2017-04-05T10:06:45.410Z,22.2
2017-04-05T10:07:43.594Z,22.15
2017-04-05T10:08:43.961Z,22.22
2017-04-05T10:09:43.922Z,22.25
2017-04-05T10:10:43.661Z,22.22
2017-04-05T10:11:43.937Z,22.22
2017-04-05T10:12:43.977Z,22.22
2017-04-05T10:13:43.988Z,22.22
2017-04-05T10:14:43.628Z,22.24
2017-04-05T10:15:44.005Z,22.22
2017-04-05T10:16:44.018Z,22.14
2017-04-05T10:17:43.657Z,22.15
2017-04-05T10:18:44.013Z,22.17
2017-04-05T10:19:43.709Z,22.12
2017-04-05T10:20:43.973Z,22.05
2017-04-05T10:21:44.090Z,22.02
2017-04-05T10:22:43.691Z,22
2017-04-05T10:23:44.293Z,22.06
2017-04-05T10:24:43.687Z,22.07
2017-04-05T10:25:43.390Z,22.14
2017-04-05T10:26:44.021Z,22
2017-04-05T10:27:44.075Z,22.07
2017-04-05T10:28:45.344Z,22.05
2017-04-05T10:29:43.817Z,22.06
2017-04-05T10:30:43.728Z,21.88
2017-04-05T10:31:44.040Z,21.96
2017-04-05T10:32:44.202Z,21.99
2017-04-05T10:33:44.112Z,21.88
2017-04-05T10:34:44.121Z,21.96
2017-04-05T10:35:43.857Z,21.9
2017-04-05T10:36:43.512Z,21.91
2017-04-05T10:37:46.135Z,22.06
2017-04-05T10:38:44.183Z,22.06
2017-04-05T10:39:44.997Z,22.03
2017-04-05T10:40:43.475Z,22.05
2017-04-05T10:41:44.204Z,22.03
2017-04-05T10:42:43.853Z,22.1
2017-04-05T10:43:44.162Z,22.05
2017-04-05T10:44:44.164Z,22.05
2017-04-05T10:45:43.813Z,22.02
2017-04-05T10:46:43.831Z,22.02
2017-04-05T10:47:44.199Z,22.03
2017-04-05T10:48:44.246Z,21.88
2017-04-05T10:49:44.145Z,21.99
2017-04-05T10:50:45.150Z,21.88
2017-04-05T10:51:44.208Z,21.88
2017-04-05T10:52:44.224Z,21.94
2017-04-05T10:53:44.271Z,21.86
2017-04-05T10:54:44.187Z,21.77
2017-04-05T10:55:44.192Z,21.8
2017-04-05T10:56:44.255Z,21.84
2017-04-05T10:57:43.886Z,21.88
2017-04-05T10:58:43.941Z,21.79
2017-04-05T10:59:43.928Z,21.84
2017-04-05T11:00:44.266Z,21.88
2017-04-05T11:01:45.226Z,21.84
2017-04-05T11:02:43.977Z,21.8
2017-04-05T11:03:44.026Z,21.8
2017-04-05T11:04:43.977Z,21.71
2017-04-05T11:05:44.300Z,21.64
2017-04-05T11:06:44.313Z,21.62
2017-04-05T11:07:43.991Z,21.58
2017-04-05T11:08:44.560Z,21.49
2017-04-05T11:09:45.825Z,21.52
2017-04-05T11:10:44.346Z,21.59
2017-04-05T11:11:44.286Z,21.53
2017-04-05T11:12:44.835Z,21.58
2017-04-05T11:13:44.340Z,21.56
2017-04-05T11:14:44.355Z,21.53
2017-04-05T11:15:44.303Z,21.67
2017-04-05T11:16:44.370Z,21.65
2017-04-05T11:17:44.010Z,21.65
2017-04-05T11:18:44.368Z,21.68
2017-04-05T11:19:44.391Z,21.62
2017-04-05T11:20:44.021Z,21.67
2017-04-05T11:21:44.022Z,21.65
2017-04-05T11:22:45.047Z,21.64
2017-04-05T11:23:44.600Z,21.61
2017-04-05T11:24:44.364Z,21.65
2017-04-05T11:25:45.428Z,21.64
2017-04-05T11:26:44.112Z,21.64
2017-04-05T11:27:44.718Z,21.59
2017-04-05T11:28:44.381Z,21.79
2017-04-05T11:29:44.378Z,21.69
2017-04-05T11:30:45.658Z,21.82
2017-04-05T11:31:44.452Z,21.8
2017-04-05T11:32:44.398Z,21.86
2017-04-05T11:33:59.023Z,21.86
2017-04-05T11:34:44.467Z,21.8
2017-04-05T11:35:44.417Z,21.8
2017-04-05T11:36:45.828Z,21.79
2017-04-05T11:37:44.484Z,21.75
2017-04-05T11:38:44.328Z,21.71
2017-04-05T11:39:44.171Z,21.72
2017-04-05T11:40:44.499Z,21.69
2017-04-05T11:41:44.139Z,21.71
2017-04-05T11:42:44.461Z,21.72
2017-04-05T11:43:44.512Z,21.68
2017-04-05T11:44:44.828Z,21.75
2017-04-05T11:45:44.472Z,21.79
2017-04-05T11:46:44.623Z,21.83
2017-04-05T11:47:45.616Z,21.8
2017-04-05T11:48:44.180Z,21.84
2017-04-05T11:49:44.564Z,21.99
2017-04-05T11:50:44.249Z,21.91
2017-04-05T11:51:44.195Z,21.9
2017-04-05T11:52:44.263Z,21.96
2017-04-05T11:53:44.523Z,21.99
2017-04-05T11:54:44.222Z,21.9
2017-04-05T11:55:44.648Z,22
2017-04-05T11:56:44.590Z,21.94
2017-04-05T11:57:44.603Z,21.91
2017-04-05T11:58:45.802Z,21.84
2017-04-05T11:59:44.624Z,21.74
2017-04-05T12:00:44.626Z,21.83
2017-04-05T12:01:44.577Z,21.77
2017-04-05T12:02:44.682Z,21.86
2017-04-05T12:03:45.967Z,21.77
2017-04-05T12:04:44.643Z,21.68
2017-04-05T12:05:44.696Z,21.72
2017-04-05T12:06:44.666Z,21.68
2017-04-05T12:07:44.591Z,21.68
2017-04-05T12:08:44.643Z,21.77
2017-04-05T12:09:45.254Z,21.77
2017-04-05T12:10:45.439Z,21.74
2017-04-05T12:11:44.727Z,21.9
2017-04-05T12:12:44.634Z,21.75
2017-04-05T12:13:45.873Z,21.71
2017-04-05T12:14:44.092Z,21.77
2017-04-05T12:15:44.652Z,21.79
2017-04-05T12:16:44.456Z,21.83
2017-04-05T12:17:44.720Z,21.84
2017-04-05T12:18:44.416Z,21.83
2017-04-05T12:19:44.371Z,21.77
2017-04-05T12:20:45.844Z,21.86
2017-04-05T12:21:44.754Z,21.74
2017-04-05T12:22:44.426Z,21.77
2017-04-05T12:23:44.801Z,21.8
2017-04-05T12:24:45.837Z,21.8
2017-04-05T12:25:44.770Z,21.75
2017-04-05T12:26:44.473Z,21.79
2017-04-05T12:27:44.465Z,21.75
2017-04-05T12:28:44.792Z,21.83
2017-04-05T12:29:44.815Z,21.91
2017-04-05T12:30:44.480Z,21.96
2017-04-05T12:31:44.498Z,21.91
2017-04-05T12:32:44.814Z,21.92
2017-04-05T12:33:44.459Z,21.92
2017-04-05T12:34:44.824Z,21.88
2017-04-05T12:35:45.727Z,21.86
2017-04-05T12:36:44.893Z,21.94
2017-04-05T12:37:44.479Z,22
2017-04-05T12:38:44.540Z,21.91
2017-04-05T12:39:44.810Z,21.92
2017-04-05T12:40:44.555Z,21.9
2017-04-05T12:41:44.813Z,21.96
2017-04-05T12:44:44.607Z,21.82
2017-04-05T12:45:44.844Z,21.83
2017-04-05T12:46:45.329Z,21.86
2017-04-05T12:47:44.852Z,21.84
2017-04-05T12:48:44.596Z,21.79
2017-04-05T12:49:44.613Z,21.88
2017-04-05T12:50:44.610Z,21.86
2017-04-05T12:51:44.876Z,21.86
2017-04-05T12:52:44.988Z,21.84
2017-04-05T12:53:45.020Z,21.9
2017-04-05T12:54:44.993Z,21.94
2017-04-05T12:55:44.969Z,21.9
2017-04-05T12:56:44.936Z,21.91
2017-04-05T12:57:45.316Z,22
2017-04-05T12:58:44.914Z,21.99
2017-04-05T12:59:44.660Z,22.05
2017-04-05T13:00:44.715Z,22.02